Wetterdaten: aktuell Montag, 24.09.2018 00:30
Datum Zeit Temp. A. Luft Gew. Boden Gew. Boden A. Feuchte A. Luftdruck Regen Wind Richtung Richtung Sonnenschein ET UV Solar Taupunkt Windchill Windben Empfang
24.09.2018 00:30 10.4 C 10.6 C 17.2 C 17.2 C 88 % 1021.1 hPa 0.0 l/m 9.2 km/h (2 Bft) W-NW 293 0 min 0.000 mm 0.0 UV-I 0 W/m 8.5 C 8.5 C 20.9 km/h (4 Bft) 98.29 %
23.09.2018 23:30 11.3 C 11.7 C 17.2 C 17.2 C 89 % 1018.0 hPa 0.2 l/m 13.9 km/h (3 Bft) NW 308 0 min 0.026 mm 0.0 UV-I 0 W/m 9.6 C 7.2 C 30.6 km/h (5 Bft) 98.31 %
23.09.2018 22:30 12.9 C 13.3 C 17.2 C 17.2 C 88 % 1015.2 hPa 0.6 l/m 19.5 km/h (3 Bft) NW 323 0 min 0.025 mm 0.0 UV-I 0 W/m 11.0 C 7.2 C 37.0 km/h (5 Bft) 100.00 %
23.09.2018 21:30 14.7 C 15.0 C 17.2 C 17.2 C 93 % 1012.5 hPa 4.2 l/m 14.1 km/h (3 Bft) W-SW 248 0 min 0.001 mm 0.0 UV-I 0 W/m 13.6 C 11.1 C 29.0 km/h (5 Bft) 99.15 %
23.09.2018 20:30 15.1 C 17.2 C 17.2 C 17.2 C 91 % 1010.4 hPa 4.2 l/m 16.8 km/h (3 Bft) W-SW 249 0 min 0.127 mm 0.0 UV-I 0 W/m 13.6 C 10.8 C 32.2 km/h (5 Bft) 100.00 %
23.09.2018 19:30 23.3 C 22.2 C 17.2 C 17.2 C 64 % 1007.3 hPa 0.0 l/m 27.4 km/h (4 Bft) SW 233 0 min 0.177 mm 0.0 UV-I 0 W/m 16.1 C 19.6 C 56.3 km/h (7 Bft) 100.00 %
23.09.2018 18:30 24.1 C 24.4 C 17.2 C 17.2 C 62 % 1007.2 hPa 0.0 l/m 25.5 km/h (4 Bft) SW 214 0 min 0.280 mm 0.0 UV-I 32 W/m 16.4 C 20.9 C 45.1 km/h (6 Bft) 100.00 %
23.09.2018 17:30 24.9 C 28.9 C 17.2 C 17.2 C 61 % 1007.7 hPa 0.0 l/m 30.1 km/h (5 Bft) SW 218 60 min 0.381 mm 0.7 UV-I 202 W/m 16.8 C 21.6 C 51.5 km/h (7 Bft) 97.44 %
23.09.2018 16:30 25.1 C 27.8 C 17.2 C 17.2 C 63 % 1009.2 hPa 0.0 l/m 30.4 km/h (5 Bft) SW 224 55 min 0.381 mm 1.5 UV-I 151 W/m 17.5 C 21.9 C 51.5 km/h (7 Bft) 96.75 %
23.09.2018 15:30 25.1 C 27.2 C 16.7 C 16.7 C 63 % 1010.4 hPa 0.0 l/m 29.2 km/h (5 Bft) W 259 60 min 0.330 mm 2.1 UV-I 370 W/m 17.5 C 21.9 C 46.7 km/h (6 Bft) 96.90 %
23.09.2018 14:30 24.6 C 25.6 C 16.7 C 16.7 C 64 % 1012.2 hPa 0.0 l/m 27.5 km/h (4 Bft) SW 235 60 min 0.330 mm 3.7 UV-I 654 W/m 17.3 C 21.4 C 41.8 km/h (6 Bft) 96.58 %
23.09.2018 13:30 23.1 C 23.9 C 16.1 C 16.1 C 73 % 1013.5 hPa 0.0 l/m 19.3 km/h (3 Bft) W-SW 254 60 min 0.203 mm 3.1 UV-I 246 W/m 18.0 C 20.3 C 38.6 km/h (5 Bft) 95.73 %
23.09.2018 12:30 20.3 C 21.7 C 16.1 C 16.1 C 81 % 1014.7 hPa 0.0 l/m 21.5 km/h (4 Bft) SW 236 60 min 0.178 mm 2.6 UV-I 283 W/m 16.9 C 16.3 C 33.8 km/h (5 Bft) 98.29 %
23.09.2018 11:30 19.3 C 20.0 C 16.1 C 15.6 C 84 % 1015.5 hPa 0.0 l/m 14.7 km/h (3 Bft) SW 226 60 min 0.001 mm 2.4 UV-I 320 W/m 16.5 C 16.5 C 32.2 km/h (5 Bft) 96.58 %
23.09.2018 10:30 17.5 C 16.1 C 15.6 C 15.6 C 90 % 1016.3 hPa 0.2 l/m 14.2 km/h (3 Bft) SW 233 35 min 0.050 mm 1.5 UV-I 211 W/m 15.8 C 14.5 C 30.6 km/h (5 Bft) 97.44 %
23.09.2018 09:30 14.4 C 13.3 C 18.3 C 18.3 C 96 % 1016.7 hPa 0.2 l/m 7.5 km/h (2 Bft) SW 231 0 min 0.026 mm 0.6 UV-I 111 W/m 13.8 C 13.8 C 16.1 km/h (3 Bft) 99.15 %
23.09.2018 08:30 12.9 C 11.7 C 18.3 C 18.3 C 96 % 1017.0 hPa 0.2 l/m 1.2 km/h (1 Bft) W-SW 241 0 min 0.000 mm 0.0 UV-I 25 W/m 12.3 C 12.9 C 6.4 km/h (2 Bft) 97.67 %
23.09.2018 07:30 12.4 C 11.1 C 18.3 C 18.3 C 95 % 1017.2 hPa 0.2 l/m 4.7 km/h (1 Bft) SW 229 0 min 0.000 mm 0.0 UV-I 12 W/m 11.6 C 12.4 C 11.3 km/h (2 Bft) 97.46 %
23.09.2018 06:30 12.0 C 11.1 C 18.3 C 18.3 C 95 % 1017.8 hPa 0.2 l/m 6.1 km/h (2 Bft) S-SW 207 0 min 0.000 mm 0.0 UV-I 0 W/m 11.2 C 12.0 C 12.9 km/h (3 Bft) 98.31 %
23.09.2018 05:30 11.8 C 11.1 C 18.3 C 18.3 C 95 % 1018.8 hPa 0.8 l/m 1.2 km/h (1 Bft) S-SW 199 0 min 0.000 mm 0.0 UV-I 0 W/m 11.0 C 11.8 C 6.4 km/h (2 Bft) 98.35 %
23.09.2018 04:30 11.6 C 11.1 C 18.3 C 18.3 C 94 % 1020.0 hPa 1.6 l/m 0.0 km/h (0 Bft) S-SW 211 0 min 0.000 mm 0.0 UV-I 0 W/m 10.7 C 11.6 C 0.0 km/h (0 Bft) 100.00 %
23.09.2018 03:30 12.0 C 11.1 C 18.3 C 18.3 C 90 % 1020.9 hPa 0.4 l/m 9.1 km/h (2 Bft) W-SW 243 0 min 0.025 mm 0.0 UV-I 0 W/m 10.4 C 10.3 C 19.3 km/h (3 Bft) 100.00 %
23.09.2018 02:30 12.2 C 11.7 C 18.3 C 18.3 C 87 % 1021.3 hPa 0.2 l/m 8.1 km/h (2 Bft) SW 217 0 min 0.026 mm 0.0 UV-I 0 W/m 10.1 C 11.1 C 16.1 km/h (3 Bft) 98.31 %
23.09.2018 01:30 12.5 C 12.2 C 18.3 C 18.3 C 82 % 1021.6 hPa 0.0 l/m 3.6 km/h (1 Bft) SW 222 0 min 0.025 mm 0.0 UV-I 0 W/m 9.5 C 12.5 C 8.0 km/h (2 Bft) 96.61 %
23.09.2018 01:00 12.6 C 12.2 C 18.3 C 18.3 C 83 % 1022.0 hPa 0.0 l/m 0.1 km/h (0 Bft) W 279 0 min 0.025 mm 0.0 UV-I 0 W/m 9.8 C 12.6 C 1.6 km/h (1 Bft) 98.29 %
_ Min-Zeit 00:25 00:15 10:25 10:25 19:40 19:00 - 04:10 - - - - - - 00:25 23:00 04:15 13:15
Minimum _ 10.4 C 10.6 C 15.6 C 15.6 C 59 % 1006.9 hPa - 0.0 km/h (0 Bft) - - - - - - 8.5 C 5.5 C 0.0 km/h (0 Bft) 94.02 %
_ Max-Zeit 15:25 17:05 01:00 01:00 07:55 01:00 20:15 16:40 - - 10:00 16:05 13:15 14:25 14:25 16:50 15:15 03:15
Maximum _ 25.4 C 28.9 C 18.3 C 18.3 C 96 % 1022.0 hPa 1.0 l/m 32.4 km/h
SW (5 Bft)
- - 5 min 0.381 mm 4.2 UV-I 729 W/m 18.1 C 22.9 C 59.5 km/h
W-SW (7 Bft)
100.00 %
Durchschnitt _ 16.7 C 17.0 C 17.4 C 17.4 C 83 % 1015.2 hPa #13.2 l/m 13.7 km/h (3 Bft) SW - #0 min. #0.000 mm 0.0 UV-I 0 W/m 13.5 C 14.5 C 25.7 km/h (4 Bft) 98.27 %